MAPA DE AEROPUERTO

INFORMACIÓN METAR y TAF


Deprecated: The each() function is deprecated. This message will be suppressed on further calls in /home/customer/www/clickair-va.com/public_html/VAM/vam/helpers/get_metar.php on line 20
METAR FOR LEBZ
ADDS - METARS form results

(0717 UTC 13 January 2023)
Data provider http://aviationweather.gov/metar/data/
 
METAR text: LEBZ 130700Z 33002KT 0300 R31/0600N R13/0800N FG VV002 07/07 Q1029
Conditions at: LEBZ (TALAVERA AB/BADA, ES) observed 0700 UTC 13 January 2023
Temperature: 7.0°C (45°F)
Dewpoint: 7.0°C (45°F) [RH = 100%]
Pressure (altimeter): 30.38 inches Hg (1029.0 mb)
Winds: from the NNW (330 degrees) at 2 MPH (2 knots; 1.0 m/s)
Visibility: 0.19 miles (0.31 km)
Ceiling: indefinite ceiling with vertical visibility of 200 feet AGL
Clouds: obscured sky
Weather: FG  (fog)

METAR text: LEBZ 130630Z VRB02KT 0200 R31/0600N R13/0550N FG VV002 07/07 Q1028
Conditions at: LEBZ (TALAVERA AB/BADA, ES) observed 0630 UTC 13 January 2023
Temperature: 7.0°C (45°F)
Dewpoint: 7.0°C (45°F) [RH = 100%]
Pressure (altimeter): 30.35 inches Hg (1028.0 mb)
Winds: variable direction winds at 2 MPH (2 knots; 1.0 m/s)
Visibility: 0.12 miles (0.19 km)
Ceiling: indefinite ceiling with vertical visibility of 200 feet AGL
Clouds: obscured sky
Weather: FG  (fog)

Forecast for: LEBZ (TALAVERA AB/BADA, ES)
Text: TAF LEBZ 130200Z 1303/1403 VRB03KT 9999 FEW030 TX11/1315Z TN05/1306Z
Forecast period: 0300 UTC 13 January 2023 to 0300 UTC 14 January 2023
Forecast type: FROM: standard forecast or significant change
Winds: variable direction winds at 3 MPH (3 knots; 1.5 m/s)
Visibility: 6 or more miles (10+ km)
Ceiling: at least 12,000 feet AGL
Clouds: few clouds at 3000 feet AGL
Weather: no significant weather forecast for this period
Text: TEMPO 1303/1312 3000 BR BKN004
Forecast period: 0300 to 1200 UTC 13 January 2023
Forecast type: TEMPORARY: The following changes expected for less than half the time period
Visibility: 1.86 miles (2.99 km)
Ceiling: 400 feet AGL
Clouds: broken clouds at 400 feet AGL
Weather: BR  (mist)
Text: PROB40
Forecast period: 0300 to 1000 UTC 13 January 2023
Forecast type: TEMPORARY: The following changes expected for less than half the time period
Visibility: 0.25 miles (0.40 km)
Ceiling: indefinite ceiling with vertical visibility of 100 feet AGL
Clouds: obscured sky
Weather: FG  (fog)
Text: TEMPO 1303/1310 0400 FG VV001
Forecast period: 1200 to 1400 UTC 13 January 2023
Forecast type: TEMPORARY: The following changes expected for less than half the time period
Visibility: missing
Ceiling: 1000 feet AGL
Clouds: broken clouds at 1000 feet AGL
Weather: no significant weather forecast for this period